CBL3 weather

Gordon Field
Fort Nelson, British Columbia, Canada

Public forecast

Using degrees Celsius for public forecast. Weather courtesy of forecast.io.

Closest aviation weather report (METAR) to Gordon Field

Closest report is Fort Nelson Airport, 5.9 nm (10.9 km) ENE. Retrieved 2019/10/23 11:00 UTC (25 minutes ago):

CYYE 231100Z 21004KT 190V270 15SM SKC M04/M05 A3025 RMK SLP271

Closest aviation forecast (TAF) to Gordon Field

Closest forecast is Fort Nelson Airport, 5.9 nm (10.9 km) ENE. Retrieved 2019/10/23 07:42 UTC (4 hours ago):

TAF CYYE 230638Z 2307/2319 20005KT P6SM SKC PROB30 2310/2314 1SM BR BECMG 2316/2318 21008KT RMK NXT FCST BY 231300Z